Time;durP1;ratioP1;P1;durP2;ratioP2;P2;SDS_P1;SDS_P2;PMS_P1;PMS_P2;Temp;Humidity;BMP_temperature;BMP_pressure;BME280_temperature;BME280_humidity;BME280_pressure;Samples;Min_cycle;Max_cycle;Signal;HPM_P1;HPM_P2
2021/05/29 00:00:11;;;;;;;;;;;;;;;16.39;80.76;99809.18;1741906;82;21074;-81
2021/05/29 00:02:37;;;;;;;5.72;5.15;;;;;;;16.35;80.85;99814.25;1726821;79;20169;-82
2021/05/29 00:05:07;;;;;;;7.22;6.72;;;;;;;16.29;81.19;99815.19;1796256;80;20944;-82
2021/05/29 00:07:33;;;;;;;6.87;6.08;;;;;;;16.28;81.40;99812.22;1794236;78;21191;-82
2021/05/29 00:09:59;;;;;;;6.78;5.72;;;;;;;16.31;81.61;99809.03;1791733;80;21023;-83
2021/05/29 00:12:25;;;;;;;;;;;;;;;16.32;81.63;99802.61;1780706;78;21054;-82
2021/05/29 00:14:53;;;;;;;4.85;4.50;;;;;;;16.32;81.54;99799.92;1775524;80;20190;-83
2021/05/29 00:17:21;;;;;;;5.30;4.90;;;;;;;16.32;81.24;99793.20;1774504;79;21120;-82
2021/05/29 00:19:47;;;;;;;;;;;;;;;16.32;81.24;99793.20;1776888;79;21042;-84
2021/05/29 00:22:13;;;;;;;5.33;4.83;;;;;;;16.32;80.52;99786.48;1770147;78;20285;-72
2021/05/29 00:24:40;;;;;;;4.97;4.58;;;;;;;16.32;80.52;99786.48;1814883;77;20964;-82
2021/05/29 00:27:07;;;;;;;4.47;4.10;;;;;;;16.30;80.57;99787.25;1822741;76;21082;-83
2021/05/29 00:29:33;;;;;;;4.35;4.05;;;;;;;16.29;80.68;99780.22;1815678;78;21094;-83
2021/05/29 00:31:59;;;;;;;5.47;5.08;;;;;;;16.24;80.83;99776.92;1823339;78;21215;-82
2021/05/29 00:34:25;;;;;;;5.10;4.67;;;;;;;16.22;81.05;99772.82;1816028;78;21123;-82
2021/05/29 00:36:51;;;;;;;;;;;;;;;16.21;81.27;99776.58;1782660;80;21065;-82
2021/05/29 00:39:18;;;;;;;5.37;5.00;;;;;;;16.23;81.38;99772.59;1768709;80;20171;-82
2021/05/29 00:41:44;;;;;;;5.28;4.83;;;;;;;16.22;81.57;99770.97;1781406;80;21077;-82
2021/05/29 00:44:15;;;;;;;;;;;;;;;16.24;81.62;99764.82;1771888;80;21031;-83
2021/05/29 00:46:41;;;;;;;4.62;4.28;;;;;;;15.93;81.49;99705.60;1756472;80;20188;-83
2021/05/29 00:49:08;;;;;;;4.58;4.30;;;;;;;16.27;81.46;99767.55;1739273;81;21256;-83
2021/05/29 00:51:34;;;;;;;5.33;4.85;;;;;;;16.29;81.42;99771.66;1759662;81;21584;-83
2021/05/29 00:54:01;;;;;;;5.33;5.03;;;;;;;16.31;81.29;99771.39;1779986;79;21095;-82
2021/05/29 00:56:28;;;;;;;4.42;4.12;;;;;;;16.31;81.37;99770.04;1768435;78;21119;-82
2021/05/29 00:58:55;;;;;;;5.53;5.12;;;;;;;16.33;81.41;99763.89;1762872;80;21096;-83
2021/05/29 01:01:21;;;;;;;5.08;4.67;;;;;;;16.34;81.51;99760.16;1756759;80;21056;-82
2021/05/29 01:03:47;;;;;;;5.72;5.33;;;;;;;16.35;81.53;99755.08;1764451;79;21582;-82
2021/05/29 01:06:13;;;;;;;5.37;4.97;;;;;;;16.36;81.59;99760.73;1765534;80;21957;-82
2021/05/29 01:08:43;;;;;;;5.50;5.00;;;;;;;16.35;81.80;99757.23;1762286;79;21008;-83
2021/05/29 01:11:10;;;;;;;5.62;5.22;;;;;;;16.38;81.95;99753.77;1740351;80;21100;-82
2021/05/29 01:13:38;;;;;;;6.28;5.87;;;;;;;16.41;81.93;99749.27;1741169;81;21102;-82
2021/05/29 01:16:18;;;;;;;6.67;6.17;;;;;;;16.44;81.85;99747.42;1738620;82;21165;-82
2021/05/29 01:18:38;;;;;;;5.85;5.40;;;;;;;16.46;81.69;99741.27;1721543;81;21096;-84
2021/05/29 01:21:05;;;;;;;5.97;5.58;;;;;;;16.46;81.69;99741.27;1737543;81;21075;-81
2021/05/29 01:23:32;;;;;;;7.22;5.95;;;;;;;16.48;81.51;99736.46;1739518;81;21113;-82
2021/05/29 01:25:58;;;;;;;6.20;5.72;;;;;;;16.51;81.47;99738.14;1742513;80;21147;-83
2021/05/29 01:28:28;;;;;;;6.33;5.72;;;;;;;16.53;81.27;99736.02;1731035;80;21103;-83
2021/05/29 01:31:01;;;;;;;7.03;6.62;;;;;;;16.52;81.23;99736.29;1723659;81;21234;-83
2021/05/29 01:33:34;;;;;;;6.50;6.10;;;;;;;16.52;81.37;99741.67;1719789;79;21539;-82
2021/05/29 01:36:05;;;;;;;7.08;6.47;;;;;;;16.51;81.47;99734.64;1707576;82;21667;-85
2021/05/29 01:38:36;;;;;;;5.95;5.47;;;;;;;16.51;81.53;99726.58;1698700;82;21711;-83
2021/05/29 01:41:06;;;;;;;5.83;5.42;;;;;;;16.53;81.66;99727.95;1723247;81;21056;-84
2021/05/29 01:43:40;;;;;;;6.55;6.00;;;;;;;16.54;81.57;99729.59;1737884;82;21085;-84
2021/05/29 01:46:07;;;;;;;6.50;5.90;;;;;;;16.55;81.58;99723.68;1735767;79;20999;-83
2021/05/29 01:48:43;;;;;;;6.03;5.50;;;;;;;16.56;81.68;99725.33;1763670;78;21039;-83
2021/05/29 01:51:09;;;;;;;5.70;5.30;;;;;;;16.56;81.72;99734.74;1733737;79;21215;-83
2021/05/29 01:53:39;;;;;;;6.75;6.25;;;;;;;16.52;81.62;99729.03;1721833;81;21079;-83
2021/05/29 01:56:06;;;;;;;6.42;5.87;;;;;;;16.48;81.71;99735.95;1750335;80;21071;-84
2021/05/29 01:58:34;;;;;;;7.45;6.30;;;;;;;16.47;81.81;99730.81;1739895;82;21033;-83
2021/05/29 02:01:04;;;;;;;6.75;6.22;;;;;;;16.46;81.89;99730.00;1748997;80;21666;-84
2021/05/29 02:03:30;;;;;;;7.60;6.87;;;;;;;16.46;81.93;99729.17;1759329;80;21077;-83
2021/05/29 02:05:58;;;;;;;11.65;7.03;;;;;;;16.46;81.91;99730.00;1759474;80;21162;-84
2021/05/29 02:08:24;;;;;;;;;;;;;;;16.45;81.92;99727.02;1753924;80;21150;-84
2021/05/29 02:10:51;;;;;;;7.37;6.65;;;;;;;16.47;81.90;99726.78;1725722;81;20196;-83
2021/05/29 02:13:33;;;;;;;8.03;7.33;;;;;;;16.41;81.92;99721.83;1749953;80;21132;-84
2021/05/29 02:16:01;;;;;;;6.53;6.08;;;;;;;16.41;81.85;99731.25;1757352;80;21059;-84
2021/05/29 02:18:27;;;;;;;7.70;6.97;;;;;;;16.40;81.87;99730.14;1749449;81;21059;-84
2021/05/29 02:21:02;;;;;;;7.58;7.05;;;;;;;16.40;81.95;99734.98;1744800;81;21068;-83
2021/05/29 02:23:37;;;;;;;7.58;6.70;;;;;;;16.37;81.97;99723.89;1749875;80;21057;-82
2021/05/29 02:26:09;;;;;;;7.03;6.42;;;;;;;16.37;82.23;99719.34;1757545;80;21485;-84
2021/05/29 02:28:37;;;;;;;7.80;7.20;;;;;;;16.33;82.04;99717.66;1742346;80;21614;-83
2021/05/29 02:31:05;;;;;;;9.93;8.25;;;;;;;16.33;82.04;99717.66;1740813;80;21083;-84
2021/05/29 02:33:33;;;;;;;8.13;7.45;;;;;;;15.76;82.16;99631.14;1745130;80;21048;-73
2021/05/29 02:36:00;;;;;;;8.15;7.45;;;;;;;16.29;82.34;99708.45;1757027;81;21090;-73
2021/05/29 02:38:28;;;;;;;7.33;6.65;;;;;;;16.30;82.45;99703.34;1757200;81;21082;-74
2021/05/29 02:40:55;;;;;;;8.73;7.90;;;;;;;16.32;82.59;99708.48;1763374;80;21144;-74
2021/05/29 02:43:22;;;;;;;7.55;6.83;;;;;;;16.35;82.70;99704.80;1753714;81;21615;-74
2021/05/29 02:45:48;;;;;;;6.80;6.22;;;;;;;16.40;82.75;99694.64;1765758;80;21120;-72
2021/05/29 02:48:15;;;;;;;7.33;6.65;;;;;;;16.46;82.47;99704.95;1768360;80;21106;-73
2021/05/29 02:50:43;;;;;;;6.42;5.83;;;;;;;16.36;82.51;99674.67;1760915;80;21067;-74
2021/05/29 02:53:12;;;;;;;5.62;5.22;;;;;;;16.65;81.96;99706.89;1758727;80;21087;-73
2021/05/29 02:55:40;;;;;;;5.55;5.05;;;;;;;16.71;81.65;99709.44;1746740;79;21049;-73
2021/05/29 02:58:07;;;;;;;5.25;4.72;;;;;;;16.78;81.26;99709.26;1705936;82;21093;-72
2021/05/29 03:00:39;;;;;;;5.20;4.75;;;;;;;16.84;80.91;99711.02;1678534;84;21004;-73
2021/05/29 03:03:07;;;;;;;5.62;5.03;;;;;;;16.87;80.56;99714.55;1701546;83;21082;-73
2021/05/29 03:05:38;;;;;;;6.33;5.65;;;;;;;16.88;80.48;99711.35;1709765;83;21079;-72
2021/05/29 03:08:06;;;;;;;4.70;4.35;;;;;;;16.86;80.33;99702.17;1703462;83;21148;-72
2021/05/29 03:10:34;;;;;;;5.67;5.20;;;;;;;16.86;80.14;99703.52;1694488;83;21035;-74
2021/05/29 03:13:01;;;;;;;6.58;6.17;;;;;;;16.80;79.89;99697.75;1728148;81;21004;-73
2021/05/29 03:15:28;;;;;;;6.55;5.95;;;;;;;16.77;79.95;99700.11;1748749;81;21118;-71
2021/05/29 03:17:56;;;;;;;6.00;5.62;;;;;;;16.72;80.16;99704.32;1769895;81;21039;-73
2021/05/29 03:20:28;;;;;;;5.75;5.35;;;;;;;16.70;80.26;99705.64;1759986;81;21021;-77
2021/05/29 03:22:54;;;;;;;7.75;5.72;;;;;;;16.72;80.34;99708.89;1769302;80;21513;-75
2021/05/29 03:25:22;;;;;;;5.58;5.28;;;;;;;16.76;80.38;99701.96;1741477;80;21103;-74
2021/05/29 03:27:52;;;;;;;6.90;6.30;;;;;;;16.76;80.38;99701.96;1721070;81;21048;-73
2021/05/29 03:30:25;;;;;;;7.45;6.95;;;;;;;16.76;80.32;99706.00;1734716;80;21673;-74
2021/05/29 03:32:53;;;;;;;7.67;7.00;;;;;;;16.76;80.13;99706.00;1732958;80;21084;-75
2021/05/29 03:35:19;;;;;;;7.97;7.17;;;;;;;16.76;80.13;99706.00;1755077;80;21157;-75
2021/05/29 03:37:46;;;;;;;7.50;6.72;;;;;;;16.73;80.33;99714.58;1741028;81;21200;-75
2021/05/29 03:40:14;;;;;;;7.70;7.17;;;;;;;16.72;80.38;99718.31;1757008;80;21130;-74
2021/05/29 03:42:42;;;;;;;9.58;8.38;;;;;;;16.71;80.57;99720.20;1751299;80;21058;-74
2021/05/29 03:45:12;;;;;;;7.72;7.08;;;;;;;16.72;80.58;99711.05;1716347;82;21040;-75
2021/05/29 03:47:41;;;;;;;9.25;8.55;;;;;;;16.60;80.32;99691.49;1750218;80;21304;-75
2021/05/29 03:50:10;;;;;;;8.88;8.18;;;;;;;16.72;80.54;99710.24;1750820;80;21019;-74
2021/05/29 03:52:36;;;;;;;8.20;7.40;;;;;;;16.67;80.62;99714.19;1713601;81;21222;-74
2021/05/29 03:55:05;;;;;;;13.15;7.78;;;;;;;16.67;80.62;99714.19;1760568;80;21118;-74
2021/05/29 03:57:31;;;;;;;10.32;8.33;;;;;;;16.64;80.76;99714.70;1736043;81;21139;-74
2021/05/29 03:59:57;;;;;;;;;;;;;;;16.63;80.95;99717.92;1727416;82;21054;-75
2021/05/29 04:02:23;;;;;;;7.65;7.00;;;;;;;16.66;80.96;99724.68;1719898;81;20225;-75
2021/05/29 04:04:49;;;;;;;7.60;7.08;;;;;;;16.63;81.00;99719.77;1688342;83;21344;-75
2021/05/29 04:07:17;;;;;;;8.40;7.78;;;;;;;16.67;81.09;99721.75;1691345;83;21140;-75
2021/05/29 04:09:44;;;;;;;9.63;8.90;;;;;;;16.72;81.04;99725.05;1689755;83;21200;-75
2021/05/29 04:12:10;;;;;;;9.40;8.60;;;;;;;16.74;81.05;99719.72;1718138;80;21560;-74
2021/05/29 04:14:37;;;;;;;9.08;8.25;;;;;;;16.76;80.82;99731.56;1722080;81;21095;-74
2021/05/29 04:17:03;;;;;;;9.95;9.15;;;;;;;16.77;80.50;99726.48;1733232;81;21170;-74
2021/05/29 04:19:29;;;;;;;;;;;;;;;16.72;80.51;99725.84;1735413;81;21023;-77
2021/05/29 04:21:58;;;;;;;9.80;8.85;;;;;;;16.69;80.67;99726.89;1739871;81;20265;-75
2021/05/29 04:24:23;;;;;;;;;;;;;;;16.63;80.72;99727.84;1763135;80;21031;-75
2021/05/29 04:26:50;;;;;;;8.68;7.97;;;;;;;16.62;80.96;99722.19;1754867;80;20206;-76
2021/05/29 04:29:16;;;;;;;;;;;;;;;16.57;81.44;99732.32;1753019;80;21127;-79
2021/05/29 04:31:42;;;;;;;6.75;6.25;;;;;;;16.60;81.44;99728.34;1760565;79;20301;-74
2021/05/29 04:36:49;;;;;;;4.90;4.60;;;;;;;16.56;81.29;99725.33;1682897;80;21704;-79
2021/05/29 04:39:15;;;;;;;5.80;5.33;;;;;;;16.58;81.39;99726.44;1720904;81;21605;-77
2021/05/29 04:41:41;;;;;;;5.37;5.08;;;;;;;16.55;81.15;99733.09;1749740;80;21170;-78
2021/05/29 04:44:07;;;;;;;3.50;3.22;;;;;;;16.47;80.91;99742.37;1747930;79;21042;-77
2021/05/29 04:46:38;;;;;;;;;;;;;;;16.38;80.63;99739.79;1791422;79;21169;-79
2021/05/29 04:49:04;;;;;;;3.25;2.67;;;;;;;16.14;80.62;99735.03;1788239;79;20205;-78
2021/05/29 04:51:30;;;;;;;2.87;2.65;;;;;;;16.14;80.62;99735.03;1788280;79;21078;-78
2021/05/29 04:53:56;;;;;;;3.10;2.20;;;;;;;16.06;80.96;99746.98;1788833;79;21055;-78
2021/05/29 04:56:24;;;;;;;1.95;1.80;;;;;;;15.99;80.96;99738.77;1784481;76;20996;-80
2021/05/29 04:58:50;;;;;;;2.67;2.47;;;;;;;15.92;80.95;99746.45;1791212;79;21056;-79
2021/05/29 05:01:16;;;;;;;2.25;2.15;;;;;;;15.87;80.85;99748.22;1788936;79;21047;-79
2021/05/29 05:03:43;;;;;;;3.02;2.60;;;;;;;15.79;80.40;99748.59;1794726;79;21336;-79
2021/05/29 05:06:11;;;;;;;2.45;2.30;;;;;;;15.65;80.81;99750.67;1791964;79;21167;-80
2021/05/29 05:08:38;;;;;;;2.02;1.92;;;;;;;15.55;80.94;99750.74;1790397;79;21052;-77
2021/05/29 05:11:04;;;;;;;2.62;1.60;;;;;;;15.52;81.21;99753.08;1792671;78;21103;-80
2021/05/29 05:13:32;;;;;;;4.58;1.85;;;;;;;15.53;81.10;99752.84;1781564;79;21126;-81
2021/05/29 05:15:58;;;;;;;3.72;1.37;;;;;;;15.52;81.06;99766.51;1744879;80;21047;-82
2021/05/29 05:18:26;;;;;;;3.67;1.82;;;;;;;15.47;81.34;99769.11;1775496;79;21652;-85
2021/05/29 05:20:55;;;;;;;3.10;1.98;;;;;;;15.43;81.70;99763.38;1789510;79;21150;-85
2021/05/29 05:23:22;;;;;;;2.92;1.10;;;;;;;15.35;81.89;99773.95;1787733;77;21007;-85
2021/05/29 05:25:52;;;;;;;2.08;0.98;;;;;;;15.33;82.12;99773.37;1785464;79;21584;-85
2021/05/29 05:28:28;;;;;;;1.52;0.95;;;;;;;15.32;82.16;99775.75;1784606;79;21039;-86
2021/05/29 05:30:58;;;;;;;1.82;1.12;;;;;;;15.32;81.71;99764.20;1734135;81;21082;-86
2021/05/29 05:33:26;;;;;;;1.65;1.30;;;;;;;15.31;81.64;99771.45;1784026;77;21015;-88
2021/05/29 05:35:54;;;;;;;1.37;1.00;;;;;;;15.31;81.71;99771.95;1757861;79;21022;-88
2021/05/29 05:38:22;;;;;;;1.00;1.00;;;;;;;15.31;81.39;99777.31;1740918;81;21056;-87
2021/05/29 05:40:48;;;;;;;2.25;0.68;;;;;;;15.33;81.29;99775.22;1785216;79;21038;-83
2021/05/29 05:43:14;;;;;;;;;;;;;;;15.34;80.99;99784.38;1786752;79;21034;-86
2021/05/29 05:45:41;;;;;;;1.40;0.50;;;;;;;15.32;80.70;99778.44;1764071;79;20562;-88
2021/05/29 05:48:07;;;;;;;2.62;0.40;;;;;;;15.30;81.11;99783.75;1753228;81;21063;-88
2021/05/29 05:50:33;;;;;;;1.90;0.30;;;;;;;15.34;81.13;99770.95;1751081;81;21039;-88
2021/05/29 05:52:59;;;;;;;0.70;0.50;;;;;;;15.42;80.17;99783.22;1745074;82;21040;-75
2021/05/29 05:55:26;;;;;;;1.17;0.25;;;;;;;15.47;79.97;99778.50;1749922;79;20971;-77
2021/05/29 05:57:54;;;;;;;1.65;0.30;;;;;;;15.49;80.02;99779.08;1779000;79;21099;-77
2021/05/29 06:00:21;;;;;;;1.75;0.57;;;;;;;15.49;79.66;99781.77;1775794;79;21083;-86
2021/05/29 06:02:47;;;;;;;2.00;0.40;;;;;;;15.48;79.59;99784.98;1780159;80;21063;-85
2021/05/29 06:05:14;;;;;;;0.93;0.40;;;;;;;15.47;79.37;99783.88;1772450;80;21061;-87
2021/05/29 06:07:41;;;;;;;2.35;0.30;;;;;;;15.48;79.46;99789.52;1749751;80;21079;-88
2021/05/29 06:10:10;;;;;;;0.68;0.30;;;;;;;15.49;79.51;99791.17;1779002;79;21107;-87
2021/05/29 06:12:42;;;;;;;0.75;0.20;;;;;;;15.52;79.42;99792.02;1778701;80;21086;-91
2021/05/29 06:18:10;;;;;;;0.30;0.30;;;;;;;15.52;78.85;99803.61;1783577;80;21079;-89
2021/05/29 06:20:34;;;;;;;1.65;0.35;;;;;;;15.50;79.20;99798.16;1769306;79;21087;-84
2021/05/29 06:23:00;;;;;;;1.22;0.30;;;;;;;15.54;78.90;99795.32;1772775;80;21161;-85
2021/05/29 06:25:27;;;;;;;1.37;0.30;;;;;;;15.63;79.05;99799.27;1773751;80;21114;-84
2021/05/29 06:27:53;;;;;;;0.23;0.23;;;;;;;15.85;78.26;99803.55;1796545;79;21013;-89
2021/05/29 06:30:20;;;;;;;0.25;0.20;;;;;;;16.06;76.95;99798.06;1783015;79;20996;-87
2021/05/29 06:32:47;;;;;;;2.20;0.30;;;;;;;16.35;76.74;99796.77;1764497;79;21062;-89
2021/05/29 06:35:13;;;;;;;;;;;;;;;16.68;75.32;99794.67;1768047;79;21025;-86
2021/05/29 06:37:41;;;;;;;0.20;0.20;;;;;;;17.03;75.04;99782.13;1774877;79;20581;-89
2021/05/29 06:40:08;;;;;;;0.75;0.20;;;;;;;17.27;73.91;99794.36;1779547;79;21039;-89
2021/05/29 06:42:34;;;;;;;0.40;0.30;;;;;;;17.62;70.81;99789.73;1782599;79;21075;-88
2021/05/29 06:45:01;;;;;;;2.10;0.20;;;;;;;17.62;70.81;99789.73;1779874;78;20983;-88
2021/05/29 06:47:27;;;;;;;0.85;0.30;;;;;;;17.73;70.84;99788.00;1789410;78;21138;-87
2021/05/29 06:49:53;;;;;;;;;;;;;;;17.71;69.50;99807.12;1794111;79;21002;-82
2021/05/29 06:52:23;;;;;;;1.35;0.30;;;;;;;17.54;69.77;99809.84;1769661;79;20280;-86
2021/05/29 07:00:06;;;;;;;2.47;0.35;;;;;;;17.32;69.67;99794.41;1779099;79;21167;-83
2021/05/29 07:02:33;;;;;;;0.30;0.25;;;;;;;17.19;69.11;99816.30;1777797;79;21364;-86
2021/05/29 07:05:00;;;;;;;0.40;0.30;;;;;;;17.09;68.63;99816.14;1784878;79;21609;-83
2021/05/29 07:07:27;;;;;;;1.10;0.20;;;;;;;17.10;69.68;99817.76;1779312;79;21106;-84
2021/05/29 07:09:53;;;;;;;0.50;0.35;;;;;;;17.15;70.05;99819.20;1776838;79;21067;-83
2021/05/29 07:12:19;;;;;;;1.15;0.30;;;;;;;17.14;70.76;99816.23;1784069;77;21080;-86
2021/05/29 07:14:46;;;;;;;1.87;0.42;;;;;;;17.05;71.54;99825.77;1783527;78;21092;-85
2021/05/29 07:17:13;;;;;;;0.30;0.20;;;;;;;17.05;71.91;99825.77;1782118;78;21262;-85
2021/05/29 07:19:41;;;;;;;0.20;0.20;;;;;;;17.07;71.71;99822.30;1782737;79;21131;-87
2021/05/29 07:22:07;;;;;;;0.80;0.30;;;;;;;17.04;71.89;99824.94;1781476;77;21063;-86
2021/05/29 07:24:35;;;;;;;1.25;0.20;;;;;;;17.00;71.68;99825.67;1789299;79;21019;-84
2021/05/29 07:27:04;;;;;;;4.03;0.20;;;;;;;16.97;72.39;99820.77;1786848;78;21016;-86
2021/05/29 07:29:30;;;;;;;0.30;0.20;;;;;;;16.90;71.70;99828.48;1779970;78;21051;-85
2021/05/29 07:31:56;;;;;;;1.37;0.30;;;;;;;16.86;71.44;99816.56;1784993;78;21464;-85
2021/05/29 07:34:23;;;;;;;0.30;0.30;;;;;;;16.86;71.44;99816.56;1750723;80;21135;-84
2021/05/29 07:36:50;;;;;;;0.55;0.42;;;;;;;16.90;71.55;99823.63;1703086;82;21065;-83
2021/05/29 07:39:16;;;;;;;0.65;0.37;;;;;;;16.88;70.78;99831.13;1693214;83;21087;-83
2021/05/29 07:41:42;;;;;;;3.42;0.30;;;;;;;16.84;71.35;99824.07;1697974;83;21078;-84
2021/05/29 07:44:10;;;;;;;1.40;0.40;;;;;;;16.78;71.44;99815.56;1717435;79;21027;-82
2021/05/29 07:46:37;;;;;;;1.22;0.30;;;;;;;16.75;71.93;99820.10;1700532;83;21174;-86
2021/05/29 07:49:06;;;;;;;1.67;0.82;;;;;;;16.58;71.51;99792.35;1762006;80;21334;-82
2021/05/29 07:51:37;;;;;;;2.90;0.57;;;;;;;16.90;71.21;99827.13;1768052;80;21062;-83
2021/05/29 07:54:09;;;;;;;1.05;0.53;;;;;;;16.96;70.95;99823.19;1773756;80;21071;-81
2021/05/29 07:56:36;;;;;;;2.75;0.50;;;;;;;16.97;70.84;99821.61;1764103;79;21492;-84
2021/05/29 07:59:21;;;;;;;1.82;0.40;;;;;;;16.88;69.58;99825.75;1716429;82;21613;-84
2021/05/29 08:01:35;;;;;;;0.30;0.25;;;;;;;16.90;70.03;99833.86;1694977;82;21052;-84
2021/05/29 08:04:03;;;;;;;2.08;0.42;;;;;;;16.97;70.31;99827.50;1713341;82;21079;-83
2021/05/29 08:06:29;;;;;;;2.25;0.60;;;;;;;17.11;70.23;99823.44;1713350;82;21115;-83
2021/05/29 08:08:56;;;;;;;0.93;0.33;;;;;;;17.18;70.19;99828.65;1714736;82;21018;-84
2021/05/29 08:11:23;;;;;;;1.95;0.45;;;;;;;17.21;70.04;99838.41;1705223;82;21065;-83
2021/05/29 08:13:53;;;;;;;0.95;0.40;;;;;;;17.32;70.07;99836.70;1713924;82;21580;-84
2021/05/29 08:16:22;;;;;;;3.40;0.80;;;;;;;17.45;69.72;99844.99;1715320;82;21127;-84
2021/05/29 08:18:51;;;;;;;1.90;0.50;;;;;;;17.51;68.14;99850.20;1722197;81;21093;-83
2021/05/29 08:21:18;;;;;;;1.52;0.62;;;;;;;17.47;67.80;99837.48;1704938;82;21172;-82
2021/05/29 08:23:46;;;;;;;1.52;0.65;;;;;;;17.41;68.63;99857.33;1712820;82;20996;-81
2021/05/29 08:26:13;;;;;;;1.27;0.75;;;;;;;17.36;68.56;99857.23;1716548;81;21037;-83
2021/05/29 08:28:40;;;;;;;1.87;0.88;;;;;;;17.31;67.95;99846.67;1715595;82;21659;-83
2021/05/29 08:31:06;;;;;;;1.12;1.00;;;;;;;17.36;67.99;99853.20;1699277;83;21162;-83
2021/05/29 08:33:32;;;;;;;;;;;;;;;17.37;68.30;99854.84;1695562;81;21044;-82
2021/05/29 08:35:58;;;;;;;0.90;0.80;;;;;;;17.38;68.35;99847.03;1708017;82;20180;-81
2021/05/29 08:38:24;;;;;;;;;;;;;;;17.32;68.23;99844.78;1705464;82;21067;-83
2021/05/29 08:40:52;;;;;;;0.93;0.68;;;;;;;17.28;68.32;99849.03;1702286;82;20226;-82
2021/05/29 08:43:18;;;;;;;1.20;0.60;;;;;;;17.21;68.16;99851.88;1706386;82;21097;-82
2021/05/29 08:45:45;;;;;;;1.45;1.07;;;;;;;17.26;68.19;99853.31;1707726;79;22140;-81
2021/05/29 08:48:12;;;;;;;1.37;1.27;;;;;;;17.28;68.10;99850.38;1698707;83;21426;-83
2021/05/29 08:51:12;;;;;;;2.25;0.78;;;;;;;17.27;67.77;99848.23;1708058;83;21120;-83
2021/05/29 08:53:06;;;;;;;3.65;1.07;;;;;;;17.25;67.50;99844.97;1688402;83;21064;-81
2021/05/29 08:55:33;;;;;;;;;;;;;;;17.25;68.31;99844.97;1716670;82;21021;-85
2021/05/29 08:58:04;;;;;;;1.45;1.10;;;;;;;17.40;68.15;99847.59;1753644;80;20164;-82
2021/05/29 09:00:30;;;;;;;;;;;;;;;17.53;68.12;99848.61;1728050;82;21024;-87
2021/05/29 09:03:11;;;;;;;3.45;0.70;;;;;;;17.69;67.31;99839.70;1729315;81;20318;-86
2021/05/29 09:05:53;;;;;;;1.00;0.70;;;;;;;17.76;65.91;99850.30;1733498;82;21033;-86
2021/05/29 09:08:23;;;;;;;0.60;0.60;;;;;;;17.82;66.01;99847.14;1727408;81;21112;-88
2021/05/29 09:10:58;;;;;;;4.58;0.68;;;;;;;17.85;65.27;99852.08;1713562;81;21009;-83
2021/05/29 09:13:28;;;;;;;3.42;0.90;;;;;;;17.82;65.67;99853.88;1696908;83;21003;-87
2021/05/29 09:16:05;;;;;;;2.60;1.30;;;;;;;17.84;65.64;99845.88;1704187;83;21076;-87
2021/05/29 09:18:49;;;;;;;3.17;0.88;;;;;;;17.92;65.84;99850.56;1699230;83;21115;-84
2021/05/29 09:21:27;;;;;;;1.65;1.05;;;;;;;17.89;65.46;99850.51;1700051;84;21165;-83
2021/05/29 09:24:00;;;;;;;0.95;0.70;;;;;;;17.64;64.97;99825.34;1725096;82;21564;-87
2021/05/29 09:26:52;;;;;;;4.30;0.88;;;;;;;17.81;65.63;99853.07;1711035;82;21592;-88
2021/05/29 09:29:30;;;;;;;2.98;0.85;;;;;;;17.78;65.59;99863.02;1729952;82;21063;-84
2021/05/29 09:32:05;;;;;;;1.55;0.37;;;;;;;17.93;65.58;99855.68;1729945;82;21094;-85
2021/05/29 09:34:51;;;;;;;1.75;0.70;;;;;;;18.01;63.42;99847.19;1711241;80;21587;-84
2021/05/29 09:37:23;;;;;;;1.52;0.68;;;;;;;17.88;63.88;99854.28;1689528;84;21068;-84
2021/05/29 09:39:57;;;;;;;2.05;0.50;;;;;;;17.64;64.16;99863.87;1684795;83;21160;-83
2021/05/29 09:42:35;;;;;;;1.22;1.00;;;;;;;17.54;64.90;99865.08;1691932;83;21061;-83
2021/05/29 09:45:26;;;;;;;2.62;0.88;;;;;;;17.49;65.01;99865.80;1699719;82;21050;-82
2021/05/29 09:48:17;;;;;;;1.22;0.78;;;;;;;17.50;65.43;99867.98;1731563;81;21110;-84
2021/05/29 09:51:10;;;;;;;0.85;0.60;;;;;;;17.50;65.50;99879.57;1718023;82;21588;-82
2021/05/29 09:53:44;;;;;;;0.70;0.70;;;;;;;17.24;65.43;99835.78;1782201;79;21101;-83
2021/05/29 09:56:37;;;;;;;4.05;0.98;;;;;;;17.46;65.60;99868.16;1766434;79;20970;-84
2021/05/29 09:59:08;;;;;;;0.60;0.55;;;;;;;17.46;65.60;99868.16;1746873;80;22370;-83
2021/05/29 10:01:45;;;;;;;2.08;0.68;;;;;;;17.62;65.20;99873.28;1776193;79;21024;-83
2021/05/29 10:04:19;;;;;;;0.72;0.70;;;;;;;17.70;65.13;99864.77;1758107;80;21233;-85
2021/05/29 10:06:58;;;;;;;2.45;0.75;;;;;;;17.71;64.32;99867.22;1788748;79;21146;-82
2021/05/29 10:11:58;;;;;;;0.53;0.53;;;;;;;17.81;63.58;99860.34;1740130;79;22710;-81
2021/05/29 10:14:27;;;;;;;1.00;0.62;;;;;;;17.79;63.57;99876.77;1683162;84;21098;-80
2021/05/29 10:16:54;;;;;;;2.15;0.42;;;;;;;17.96;63.49;99876.77;1673201;84;21066;-82
2021/05/29 10:19:22;;;;;;;1.17;0.57;;;;;;;18.27;62.87;99867.21;1673138;84;21240;-84
2021/05/29 10:21:51;;;;;;;0.47;0.47;;;;;;;18.54;61.24;99875.89;1631551;86;21113;-82
2021/05/29 10:24:20;;;;;;;2.77;0.88;;;;;;;18.71;60.60;99878.52;1657008;85;21031;-83
2021/05/29 10:26:48;;;;;;;1.92;1.25;;;;;;;18.75;61.28;99875.58;1664194;85;21082;-83
2021/05/29 10:29:16;;;;;;;2.10;1.22;;;;;;;18.78;61.33;99875.09;1670903;84;21087;-82
2021/05/29 10:31:43;;;;;;;0.57;0.57;;;;;;;18.78;61.14;99879.64;1672515;84;21091;-82
2021/05/29 10:34:10;;;;;;;1.57;1.25;;;;;;;18.87;61.37;99875.45;1664900;84;21053;-79
2021/05/29 10:36:57;;;;;;;3.85;0.95;;;;;;;18.96;61.32;99878.52;1612880;87;21139;-82
2021/05/29 10:39:42;;;;;;;0.88;0.70;;;;;;;19.00;60.41;99883.69;1633861;86;21195;-83
2021/05/29 10:42:09;;;;;;;2.67;1.05;;;;;;;18.91;60.01;99886.56;1652864;86;21071;-82
2021/05/29 10:44:42;;;;;;;2.25;0.68;;;;;;;18.90;59.95;99883.61;1660831;84;21518;-83
2021/05/29 10:47:17;;;;;;;2.58;0.80;;;;;;;18.92;60.48;99880.11;1674030;83;21553;-81
2021/05/29 10:49:55;;;;;;;0.82;0.62;;;;;;;19.01;60.03;99879.94;1683738;84;21096;-82
2021/05/29 10:52:42;;;;;;;0.90;0.78;;;;;;;19.06;58.89;99872.70;1652651;86;21048;-83
2021/05/29 10:55:24;;;;;;;0.75;0.60;;;;;;;19.11;58.26;99868.41;1654756;86;21184;-82
2021/05/29 10:58:03;;;;;;;0.50;0.50;;;;;;;19.13;59.01;99868.96;1640814;85;21066;-84
2021/05/29 11:00:41;;;;;;;0.72;0.40;;;;;;;19.19;57.91;99866.06;1648619;85;21086;-82
2021/05/29 11:03:24;;;;;;;1.40;0.78;;;;;;;19.20;56.39;99859.57;1658830;85;21042;-82
2021/05/29 11:05:59;;;;;;;0.68;0.45;;;;;;;19.24;57.44;99859.88;1632808;87;21741;-82
2021/05/29 11:08:52;;;;;;;0.42;0.30;;;;;;;19.32;56.49;99855.88;1638750;86;21064;-82
2021/05/29 11:14:49;;;;;;;1.05;0.30;;;;;;;19.25;55.74;99865.03;1668446;85;21095;-83
2021/05/29 11:17:24;;;;;;;0.50;0.40;;;;;;;19.28;55.98;99865.04;1666441;84;21075;-83
2021/05/29 11:20:17;;;;;;;1.35;0.45;;;;;;;19.32;55.62;99859.39;1652423;85;21061;-84
2021/05/29 11:22:50;;;;;;;0.82;0.45;;;;;;;19.33;55.68;99859.69;1646103;85;21045;-83
2021/05/29 11:25:23;;;;;;;0.40;0.30;;;;;;;19.35;55.81;99857.53;1648610;85;21088;-81
2021/05/29 11:27:50;;;;;;;2.95;0.40;;;;;;;19.34;55.32;99861.84;1661207;85;21132;-83
2021/05/29 11:30:26;;;;;;;4.05;0.85;;;;;;;19.36;54.90;99865.09;1652465;85;22172;-83
2021/05/29 11:33:02;;;;;;;0.70;0.70;;;;;;;19.38;55.43;99865.66;1682547;83;21071;-82
2021/05/29 11:35:48;;;;;;;0.93;0.60;;;;;;;19.38;54.88;99867.01;1646368;85;21061;-83
2021/05/29 11:38:30;;;;;;;3.02;0.30;;;;;;;19.40;55.35;99862.16;1645158;85;21151;-81
2021/05/29 11:41:08;;;;;;;1.72;0.40;;;;;;;19.43;55.66;99864.35;1644972;86;21183;-83
2021/05/29 11:43:55;;;;;;;1.27;0.33;;;;;;;19.41;55.34;99856.50;1608237;87;21666;-87
2021/05/29 11:46:30;;;;;;;2.67;0.53;;;;;;;19.35;55.15;99860.24;1632307;86;21157;-81
2021/05/29 11:49:06;;;;;;;1.52;0.50;;;;;;;19.30;55.49;99859.38;1620822;86;21088;-82
2021/05/29 11:51:39;;;;;;;0.82;0.30;;;;;;;19.26;55.72;99867.19;1628654;88;21089;-82
2021/05/29 11:54:13;;;;;;;0.85;0.37;;;;;;;19.28;56.27;99873.14;1655809;86;21080;-83
2021/05/29 11:56:49;;;;;;;0.65;0.40;;;;;;;19.33;56.13;99875.09;1679758;83;21043;-80
2021/05/29 11:59:18;;;;;;;2.83;0.55;;;;;;;19.36;56.22;99873.20;1683324;83;21087;-82
2021/05/29 12:01:50;;;;;;;1.00;0.95;;;;;;;19.40;56.98;99867.56;1676750;83;21073;-82
2021/05/29 12:04:21;;;;;;;2.87;0.98;;;;;;;19.47;56.35;99864.66;1635624;86;21169;-82